sensor_id;sensor_type;location;lat;lon;timestamp;pressure;altitude;pressure_sealevel;temperature;humidity
23223;BME280;11780;13.904;100.620;2023-08-01T00:00:13;100703.53;;;31.95;67.09
23223;BME280;11780;13.904;100.620;2023-08-01T00:02:44;100703.72;;;31.89;67.29
23223;BME280;11780;13.904;100.620;2023-08-01T00:05:15;100704.84;;;31.88;67.42
23223;BME280;11780;13.904;100.620;2023-08-01T00:07:45;100705.81;;;31.93;67.26
23223;BME280;11780;13.904;100.620;2023-08-01T00:10:15;100710.56;;;31.92;67.10
23223;BME280;11780;13.904;100.620;2023-08-01T00:12:46;100705.97;;;31.96;67.19
23223;BME280;11780;13.904;100.620;2023-08-01T00:15:16;100714.75;;;31.98;67.53
23223;BME280;11780;13.904;100.620;2023-08-01T00:17:47;100713.59;;;31.99;67.18
23223;BME280;11780;13.904;100.620;2023-08-01T00:20:17;100718.03;;;31.92;67.57
23223;BME280;11780;13.904;100.620;2023-08-01T00:22:47;100711.19;;;31.98;67.74
23223;BME280;11780;13.904;100.620;2023-08-01T00:25:18;100711.00;;;31.94;67.76
23223;BME280;11780;13.904;100.620;2023-08-01T00:27:49;100716.53;;;31.94;67.79
23223;BME280;11780;13.904;100.620;2023-08-01T00:30:21;100722.56;;;31.96;67.76
23223;BME280;11780;13.904;100.620;2023-08-01T00:32:51;100719.81;;;31.87;68.29
23223;BME280;11780;13.904;100.620;2023-08-01T00:35:21;100726.66;;;31.90;68.19
23223;BME280;11780;13.904;100.620;2023-08-01T00:37:52;100727.16;;;31.92;68.11
23223;BME280;11780;13.904;100.620;2023-08-01T00:40:22;100727.34;;;31.78;68.43
23223;BME280;11780;13.904;100.620;2023-08-01T00:42:52;100726.19;;;31.88;68.03
23223;BME280;11780;13.904;100.620;2023-08-01T00:45:27;100729.56;;;31.94;68.23
23223;BME280;11780;13.904;100.620;2023-08-01T00:47:57;100732.00;;;31.95;67.84
23223;BME280;11780;13.904;100.620;2023-08-01T00:50:28;100745.34;;;31.93;67.92
23223;BME280;11780;13.904;100.620;2023-08-01T00:52:58;100746.69;;;31.87;68.24
23223;BME280;11780;13.904;100.620;2023-08-01T00:55:29;100740.31;;;31.86;67.89
23223;BME280;11780;13.904;100.620;2023-08-01T00:58:00;100745.19;;;31.89;67.70
23223;BME280;11780;13.904;100.620;2023-08-01T01:00:31;100743.44;;;31.85;67.88
23223;BME280;11780;13.904;100.620;2023-08-01T01:03:03;100748.78;;;31.90;67.57
23223;BME280;11780;13.904;100.620;2023-08-01T01:05:36;100737.56;;;31.86;67.69
23223;BME280;11780;13.904;100.620;2023-08-01T01:08:09;100749.94;;;31.89;67.67
23223;BME280;11780;13.904;100.620;2023-08-01T01:10:39;100754.31;;;31.90;67.77
23223;BME280;11780;13.904;100.620;2023-08-01T01:13:09;100754.50;;;31.85;67.72
23223;BME280;11780;13.904;100.620;2023-08-01T01:15:40;100750.72;;;31.89;67.42
23223;BME280;11780;13.904;100.620;2023-08-01T01:18:10;100748.63;;;31.86;67.46
23223;BME280;11780;13.904;100.620;2023-08-01T01:20:40;100751.88;;;31.88;67.60
23223;BME280;11780;13.904;100.620;2023-08-01T01:23:11;100750.94;;;31.84;67.55
23223;BME280;11780;13.904;100.620;2023-08-01T01:25:42;100752.38;;;31.82;67.22
23223;BME280;11780;13.904;100.620;2023-08-01T01:28:13;100749.31;;;31.83;66.70
23223;BME280;11780;13.904;100.620;2023-08-01T01:30:45;100753.69;;;31.84;66.67
23223;BME280;11780;13.904;100.620;2023-08-01T01:33:15;100758.53;;;31.87;66.52
23223;BME280;11780;13.904;100.620;2023-08-01T01:35:47;100772.56;;;31.91;66.39
23223;BME280;11780;13.904;100.620;2023-08-01T01:38:17;100764.91;;;31.88;66.13
23223;BME280;11780;13.904;100.620;2023-08-01T01:40:47;100760.66;;;31.91;65.70
23223;BME280;11780;13.904;100.620;2023-08-01T01:43:18;100768.47;;;31.88;65.38
23223;BME280;11780;13.904;100.620;2023-08-01T01:45:48;100754.81;;;31.92;65.40
23223;BME280;11780;13.904;100.620;2023-08-01T01:48:18;100764.41;;;31.95;65.28
23223;BME280;11780;13.904;100.620;2023-08-01T01:50:49;100760.50;;;31.96;65.54
23223;BME280;11780;13.904;100.620;2023-08-01T01:53:19;100774.81;;;31.98;64.94
23223;BME280;11780;13.904;100.620;2023-08-01T01:55:50;100773.66;;;31.99;64.56
23223;BME280;11780;13.904;100.620;2023-08-01T01:58:21;100783.59;;;32.00;65.20
23223;BME280;11780;13.904;100.620;2023-08-01T02:00:51;100780.63;;;32.05;65.23
23223;BME280;11780;13.904;100.620;2023-08-01T02:03:22;100788.13;;;32.04;65.24
23223;BME280;11780;13.904;100.620;2023-08-01T02:05:52;100786.25;;;32.17;64.90
23223;BME280;11780;13.904;100.620;2023-08-01T02:08:23;100790.34;;;32.20;65.08
23223;BME280;11780;13.904;100.620;2023-08-01T02:10:53;100784.59;;;32.25;64.97
23223;BME280;11780;13.904;100.620;2023-08-01T02:13:29;100786.09;;;32.31;64.86
23223;BME280;11780;13.904;100.620;2023-08-01T02:16:01;100789.66;;;32.32;65.03
23223;BME280;11780;13.904;100.620;2023-08-01T02:18:32;100787.84;;;32.36;65.39
23223;BME280;11780;13.904;100.620;2023-08-01T02:21:04;100780.63;;;32.44;65.27
23223;BME280;11780;13.904;100.620;2023-08-01T02:23:34;100780.63;;;32.44;65.17
23223;BME280;11780;13.904;100.620;2023-08-01T02:26:07;100779.19;;;32.46;65.05
23223;BME280;11780;13.904;100.620;2023-08-01T02:28:38;100773.78;;;32.50;65.03
23223;BME280;11780;13.904;100.620;2023-08-01T02:31:08;100778.19;;;32.51;64.73
23223;BME280;11780;13.904;100.620;2023-08-01T02:33:38;100780.28;;;32.54;64.70
23223;BME280;11780;13.904;100.620;2023-08-01T02:36:09;100784.31;;;32.57;64.58
23223;BME280;11780;13.904;100.620;2023-08-01T02:38:39;100776.97;;;32.61;64.40
23223;BME280;11780;13.904;100.620;2023-08-01T02:41:10;100782.97;;;32.63;64.12
23223;BME280;11780;13.904;100.620;2023-08-01T02:43:40;100781.38;;;32.62;63.88
23223;BME280;11780;13.904;100.620;2023-08-01T02:46:11;100784.75;;;32.68;63.79
23223;BME280;11780;13.904;100.620;2023-08-01T02:48:41;100769.59;;;32.65;63.73
23223;BME280;11780;13.904;100.620;2023-08-01T02:51:11;100768.69;;;32.61;63.70
23223;BME280;11780;13.904;100.620;2023-08-01T02:53:42;100769.59;;;32.65;64.15
23223;BME280;11780;13.904;100.620;2023-08-01T02:56:13;100776.09;;;32.69;64.05
23223;BME280;11780;13.904;100.620;2023-08-01T02:58:43;100761.78;;;32.67;64.09
23223;BME280;11780;13.904;100.620;2023-08-01T03:01:15;100774.59;;;32.72;64.22
23223;BME280;11780;13.904;100.620;2023-08-01T03:03:46;100766.31;;;32.72;64.12
23223;BME280;11780;13.904;100.620;2023-08-01T03:06:17;100775.44;;;32.72;63.24
23223;BME280;11780;13.904;100.620;2023-08-01T03:08:48;100772.19;;;32.70;63.55
23223;BME280;11780;13.904;100.620;2023-08-01T03:11:18;100766.50;;;32.67;63.72
23223;BME280;11780;13.904;100.620;2023-08-01T03:13:49;100756.38;;;32.71;63.27
23223;BME280;11780;13.904;100.620;2023-08-01T03:17:47;100751.72;;;32.62;63.00
23223;BME280;11780;13.904;100.620;2023-08-01T03:20:17;100755.28;;;32.63;63.22
23223;BME280;11780;13.904;100.620;2023-08-01T03:22:47;100757.19;;;32.71;63.05
23223;BME280;11780;13.904;100.620;2023-08-01T03:25:18;100754.97;;;32.64;63.37
23223;BME280;11780;13.904;100.620;2023-08-01T03:27:48;100758.81;;;32.72;62.91
23223;BME280;11780;13.904;100.620;2023-08-01T03:30:18;100761.09;;;32.70;63.21
23223;BME280;11780;13.904;100.620;2023-08-01T03:32:48;100756.91;;;32.64;62.91
23223;BME280;11780;13.904;100.620;2023-08-01T03:35:19;100758.81;;;32.72;63.07
23223;BME280;11780;13.904;100.620;2023-08-01T03:37:49;100757.53;;;32.70;62.91
23223;BME280;11780;13.904;100.620;2023-08-01T03:40:20;100768.28;;;32.71;63.16
23223;BME280;11780;13.904;100.620;2023-08-01T03:42:51;100758.81;;;32.72;63.32
23223;BME280;11780;13.904;100.620;2023-08-01T03:45:21;100754.69;;;32.78;63.00
23223;BME280;11780;13.904;100.620;2023-08-01T03:47:51;100763.34;;;32.77;62.85
23223;BME280;11780;13.904;100.620;2023-08-01T03:50:22;100752.81;;;32.70;63.08
23223;BME280;11780;13.904;100.620;2023-08-01T03:52:53;100756.91;;;32.64;63.24
23223;BME280;11780;13.904;100.620;2023-08-01T03:55:23;100759.31;;;32.74;62.39
23223;BME280;11780;13.904;100.620;2023-08-01T03:57:53;100757.81;;;32.77;62.16
23223;BME280;11780;13.904;100.620;2023-08-01T04:00:24;100761.84;;;32.79;62.39
23223;BME280;11780;13.904;100.620;2023-08-01T04:02:55;100757.31;;;32.75;62.70
23223;BME280;11780;13.904;100.620;2023-08-01T04:05:25;100759.78;;;32.76;62.92
23223;BME280;11780;13.904;100.620;2023-08-01T04:07:56;100756.06;;;32.72;62.74
23223;BME280;11780;13.904;100.620;2023-08-01T04:10:27;100761.84;;;32.79;61.97
23223;BME280;11780;13.904;100.620;2023-08-01T04:12:57;100751.59;;;32.80;61.34
23223;BME280;11780;13.904;100.620;2023-08-01T04:15:27;100759.75;;;32.85;61.67
23223;BME280;11780;13.904;100.620;2023-08-01T04:17:58;100758.44;;;32.83;61.76
23223;BME280;11780;13.904;100.620;2023-08-01T04:20:28;100749.63;;;32.80;62.28
23223;BME280;11780;13.904;100.620;2023-08-01T04:22:59;100745.94;;;32.76;61.96
23223;BME280;11780;13.904;100.620;2023-08-01T04:25:29;100751.59;;;32.80;61.96
23223;BME280;11780;13.904;100.620;2023-08-01T04:27:59;100755.47;;;32.88;61.91
23223;BME280;11780;13.904;100.620;2023-08-01T04:30:29;100754.88;;;32.82;62.11
23223;BME280;11780;13.904;100.620;2023-08-01T04:33:01;100758.63;;;32.77;62.12
23223;BME280;11780;13.904;100.620;2023-08-01T04:35:32;100749.38;;;32.73;62.43
23223;BME280;11780;13.904;100.620;2023-08-01T04:38:02;100746.06;;;32.80;62.17
23223;BME280;11780;13.904;100.620;2023-08-01T04:40:33;100744.63;;;32.74;62.55
23223;BME280;11780;13.904;100.620;2023-08-01T04:43:03;100743.28;;;32.80;62.41
23223;BME280;11780;13.904;100.620;2023-08-01T04:45:33;100739.69;;;32.79;62.15
23223;BME280;11780;13.904;100.620;2023-08-01T04:48:04;100737.44;;;32.82;62.32
23223;BME280;11780;13.904;100.620;2023-08-01T04:50:34;100732.53;;;32.78;62.26
23223;BME280;11780;13.904;100.620;2023-08-01T04:53:04;100726.97;;;32.78;62.16
23223;BME280;11780;13.904;100.620;2023-08-01T04:55:36;100719.50;;;32.79;62.52
23223;BME280;11780;13.904;100.620;2023-08-01T04:58:06;100720.31;;;32.79;62.94
23223;BME280;11780;13.904;100.620;2023-08-01T05:00:40;100719.78;;;32.86;62.77
23223;BME280;11780;13.904;100.620;2023-08-01T05:03:10;100718.31;;;32.89;62.78
23223;BME280;11780;13.904;100.620;2023-08-01T05:05:41;100719.47;;;32.88;62.65
23223;BME280;11780;13.904;100.620;2023-08-01T05:08:12;100714.94;;;32.83;62.52
23223;BME280;11780;13.904;100.620;2023-08-01T05:10:42;100715.88;;;32.87;62.73
23223;BME280;11780;13.904;100.620;2023-08-01T05:13:13;100713.25;;;32.91;62.43
23223;BME280;11780;13.904;100.620;2023-08-01T05:15:47;100712.09;;;32.92;62.54
23223;BME280;11780;13.904;100.620;2023-08-01T05:18:17;100714.41;;;32.90;62.70
23223;BME280;11780;13.904;100.620;2023-08-01T05:20:48;100691.75;;;32.88;62.55
23223;BME280;11780;13.904;100.620;2023-08-01T05:23:18;100688.53;;;32.86;62.60
23223;BME280;11780;13.904;100.620;2023-08-01T05:25:48;100690.34;;;32.82;62.93
23223;BME280;11780;13.904;100.620;2023-08-01T05:28:18;100690.63;;;32.89;62.95
23223;BME280;11780;13.904;100.620;2023-08-01T05:30:49;100688.69;;;32.80;63.06
23223;BME280;11780;13.904;100.620;2023-08-01T05:33:19;100684.78;;;32.82;63.07
23223;BME280;11780;13.904;100.620;2023-08-01T05:35:50;100682.03;;;32.82;63.03
23223;BME280;11780;13.904;100.620;2023-08-01T05:38:20;100685.44;;;32.78;63.19
23223;BME280;11780;13.904;100.620;2023-08-01T05:40:51;100675.69;;;32.81;62.92
23223;BME280;11780;13.904;100.620;2023-08-01T05:43:21;100678.47;;;32.81;62.80
23223;BME280;11780;13.904;100.620;2023-08-01T05:45:51;100668.50;;;32.80;62.83
23223;BME280;11780;13.904;100.620;2023-08-01T05:48:22;100662.97;;;32.80;62.73
23223;BME280;11780;13.904;100.620;2023-08-01T05:50:53;100674.34;;;32.78;63.05
23223;BME280;11780;13.904;100.620;2023-08-01T05:53:25;100661.97;;;32.85;63.19
23223;BME280;11780;13.904;100.620;2023-08-01T05:55:57;100662.84;;;32.76;63.08
23223;BME280;11780;13.904;100.620;2023-08-01T05:58:27;100654.66;;;32.80;63.19
23223;BME280;11780;13.904;100.620;2023-08-01T06:00:58;100658.22;;;32.80;62.88
23223;BME280;11780;13.904;100.620;2023-08-01T06:03:28;100648.28;;;32.79;63.07
23223;BME280;11780;13.904;100.620;2023-08-01T06:05:58;100648.63;;;32.78;63.07
23223;BME280;11780;13.904;100.620;2023-08-01T06:08:29;100653.81;;;32.79;63.26
23223;BME280;11780;13.904;100.620;2023-08-01T06:10:59;100637.56;;;32.78;62.99
23223;BME280;11780;13.904;100.620;2023-08-01T06:13:30;100632.16;;;32.82;62.86
23223;BME280;11780;13.904;100.620;2023-08-01T06:16:00;100624.50;;;32.78;62.48
23223;BME280;11780;13.904;100.620;2023-08-01T06:18:31;100620.13;;;32.77;62.79
23223;BME280;11780;13.904;100.620;2023-08-01T06:21:02;100627.09;;;32.84;62.95
23223;BME280;11780;13.904;100.620;2023-08-01T06:23:32;100621.84;;;32.91;62.60
23223;BME280;11780;13.904;100.620;2023-08-01T06:26:03;100621.69;;;32.87;62.75
23223;BME280;11780;13.904;100.620;2023-08-01T06:28:33;100613.38;;;32.87;63.00
23223;BME280;11780;13.904;100.620;2023-08-01T06:31:03;100614.53;;;32.86;62.65
23223;BME280;11780;13.904;100.620;2023-08-01T06:33:33;100606.47;;;32.93;62.57
23223;BME280;11780;13.904;100.620;2023-08-01T06:36:05;100609.13;;;32.90;62.72
23223;BME280;11780;13.904;100.620;2023-08-01T06:38:36;100603.22;;;32.91;62.73
23223;BME280;11780;13.904;100.620;2023-08-01T06:41:06;100600.81;;;32.90;62.74
23223;BME280;11780;13.904;100.620;2023-08-01T06:43:36;100600.66;;;32.86;62.77
23223;BME280;11780;13.904;100.620;2023-08-01T06:46:09;100594.13;;;32.91;62.88
23223;BME280;11780;13.904;100.620;2023-08-01T06:48:40;100595.00;;;32.83;63.06
23223;BME280;11780;13.904;100.620;2023-08-01T06:51:10;100592.50;;;32.90;62.85
23223;BME280;11780;13.904;100.620;2023-08-01T06:53:41;100595.84;;;32.83;62.95
23223;BME280;11780;13.904;100.620;2023-08-01T06:56:12;100595.34;;;32.81;63.04
23223;BME280;11780;13.904;100.620;2023-08-01T06:58:42;100589.25;;;32.88;62.72
23223;BME280;11780;13.904;100.620;2023-08-01T07:01:12;100581.63;;;32.85;62.48
23223;BME280;11780;13.904;100.620;2023-08-01T07:03:43;100580.00;;;32.84;62.57
23223;BME280;11780;13.904;100.620;2023-08-01T07:06:13;100573.91;;;32.90;62.22
23223;BME280;11780;13.904;100.620;2023-08-01T07:08:44;100576.25;;;32.79;62.62
23223;BME280;11780;13.904;100.620;2023-08-01T07:11:14;100568.78;;;32.80;62.89
23223;BME280;11780;13.904;100.620;2023-08-01T07:13:44;100566.16;;;32.84;62.68
23223;BME280;11780;13.904;100.620;2023-08-01T07:16:14;100565.19;;;32.79;62.78
23223;BME280;11780;13.904;100.620;2023-08-01T07:18:45;100569.56;;;32.80;62.49
23223;BME280;11780;13.904;100.620;2023-08-01T07:21:16;100563.06;;;32.85;62.35
23223;BME280;11780;13.904;100.620;2023-08-01T07:23:46;100553.94;;;32.85;62.25
23223;BME280;11780;13.904;100.620;2023-08-01T07:26:18;100546.88;;;32.87;61.91
23223;BME280;11780;13.904;100.620;2023-08-01T07:28:48;100549.34;;;32.89;61.78
23223;BME280;11780;13.904;100.620;2023-08-01T07:31:19;100554.28;;;32.83;61.58
23223;BME280;11780;13.904;100.620;2023-08-01T07:33:49;100549.06;;;32.82;61.91
23223;BME280;11780;13.904;100.620;2023-08-01T07:36:20;100550.00;;;32.86;62.02
23223;BME280;11780;13.904;100.620;2023-08-01T07:38:52;100544.00;;;32.84;62.28
23223;BME280;11780;13.904;100.620;2023-08-01T07:41:23;100544.19;;;32.78;62.37
23223;BME280;11780;13.904;100.620;2023-08-01T07:43:53;100534.53;;;32.85;62.20
23223;BME280;11780;13.904;100.620;2023-08-01T07:46:23;100537.78;;;32.87;62.27
23223;BME280;11780;13.904;100.620;2023-08-01T07:48:53;100539.97;;;32.81;62.57
23223;BME280;11780;13.904;100.620;2023-08-01T07:51:25;100541.69;;;32.86;62.64
23223;BME280;11780;13.904;100.620;2023-08-01T07:53:55;100533.81;;;32.75;62.98
23223;BME280;11780;13.904;100.620;2023-08-01T07:56:25;100537.47;;;32.79;62.59
23223;BME280;11780;13.904;100.620;2023-08-01T07:58:56;100534.28;;;32.77;62.51
23223;BME280;11780;13.904;100.620;2023-08-01T08:01:26;100533.09;;;32.78;62.45
23223;BME280;11780;13.904;100.620;2023-08-01T08:03:56;100534.28;;;32.77;62.95
23223;BME280;11780;13.904;100.620;2023-08-01T08:06:30;100536.56;;;32.75;63.30
23223;BME280;11780;13.904;100.620;2023-08-01T08:09:00;100528.00;;;32.68;63.88
23223;BME280;11780;13.904;100.620;2023-08-01T08:11:31;100533.22;;;32.70;64.18
23223;BME280;11780;13.904;100.620;2023-08-01T08:14:02;100521.44;;;32.73;64.27
23223;BME280;11780;13.904;100.620;2023-08-01T08:16:33;100523.41;;;32.72;64.25
23223;BME280;11780;13.904;100.620;2023-08-01T08:19:04;100498.59;;;32.76;64.09
23223;BME280;11780;13.904;100.620;2023-08-01T08:21:34;100500.56;;;32.75;64.18
23223;BME280;11780;13.904;100.620;2023-08-01T08:24:04;100508.63;;;32.68;64.47
23223;BME280;11780;13.904;100.620;2023-08-01T08:26:35;100502.41;;;32.71;64.50
23223;BME280;11780;13.904;100.620;2023-08-01T08:29:08;100515.78;;;32.69;64.68
23223;BME280;11780;13.904;100.620;2023-08-01T08:31:38;100512.31;;;32.72;64.29
23223;BME280;11780;13.904;100.620;2023-08-01T08:34:08;100507.25;;;32.74;64.43
23223;BME280;11780;13.904;100.620;2023-08-01T08:36:39;100498.47;;;32.72;64.32
23223;BME280;11780;13.904;100.620;2023-08-01T08:39:10;100494.44;;;32.70;64.38
23223;BME280;11780;13.904;100.620;2023-08-01T08:41:46;100498.22;;;32.65;64.06
23223;BME280;11780;13.904;100.620;2023-08-01T08:44:20;100493.63;;;32.69;64.03
23223;BME280;11780;13.904;100.620;2023-08-01T08:46:51;100476.06;;;32.65;63.96
23223;BME280;11780;13.904;100.620;2023-08-01T08:49:22;100482.75;;;32.64;63.90
23223;BME280;11780;13.904;100.620;2023-08-01T08:51:54;100476.66;;;32.71;63.93
23223;BME280;11780;13.904;100.620;2023-08-01T08:54:25;100480.25;;;32.71;64.05
23223;BME280;11780;13.904;100.620;2023-08-01T08:56:58;100483.13;;;32.75;64.04
23223;BME280;11780;13.904;100.620;2023-08-01T08:59:29;100476.25;;;32.81;63.91
23223;BME280;11780;13.904;100.620;2023-08-01T09:02:01;100471.50;;;32.82;64.09
23223;BME280;11780;13.904;100.620;2023-08-01T09:04:33;100473.72;;;32.88;63.90
23223;BME280;11780;13.904;100.620;2023-08-01T09:07:08;100467.03;;;32.89;63.89
23223;BME280;11780;13.904;100.620;2023-08-01T09:09:38;100466.22;;;32.89;63.92
23223;BME280;11780;13.904;100.620;2023-08-01T09:12:09;100465.97;;;32.94;64.13
23223;BME280;11780;13.904;100.620;2023-08-01T09:14:40;100472.25;;;32.91;63.91
23223;BME280;11780;13.904;100.620;2023-08-01T09:17:11;100477.06;;;32.94;63.83
23223;BME280;11780;13.904;100.620;2023-08-01T09:19:41;100477.06;;;32.94;64.16
23223;BME280;11780;13.904;100.620;2023-08-01T09:22:13;100480.31;;;32.96;64.17
23223;BME280;11780;13.904;100.620;2023-08-01T09:24:53;100482.16;;;33.04;64.17
23223;BME280;11780;13.904;100.620;2023-08-01T09:27:32;100479.63;;;32.99;64.06
23223;BME280;11780;13.904;100.620;2023-08-01T09:32:37;100484.94;;;33.04;63.75
23223;BME280;11780;13.904;100.620;2023-08-01T09:35:08;100485.16;;;32.99;63.71
23223;BME280;11780;13.904;100.620;2023-08-01T09:37:42;100487.94;;;32.99;63.92
23223;BME280;11780;13.904;100.620;2023-08-01T09:40:14;100487.59;;;33.01;63.64
23223;BME280;11780;13.904;100.620;2023-08-01T09:42:45;100479.88;;;33.06;63.85
23223;BME280;11780;13.904;100.620;2023-08-01T09:45:17;100485.41;;;33.06;63.76
23223;BME280;11780;13.904;100.620;2023-08-01T09:47:47;100479.88;;;33.06;63.82
23223;BME280;11780;13.904;100.620;2023-08-01T09:50:23;100485.75;;;33.05;63.62
23223;BME280;11780;13.904;100.620;2023-08-01T09:52:53;100484.25;;;33.07;64.08
23223;BME280;11780;13.904;100.620;2023-08-01T09:55:33;100491.63;;;33.03;63.64
23223;BME280;11780;13.904;100.620;2023-08-01T09:58:04;100492.31;;;33.00;63.72
23223;BME280;11780;13.904;100.620;2023-08-01T10:00:37;100499.00;;;32.99;63.90
23223;BME280;11780;13.904;100.620;2023-08-01T10:03:08;100493.69;;;32.94;64.17
23223;BME280;11780;13.904;100.620;2023-08-01T10:05:39;100494.41;;;32.91;64.47
23223;BME280;11780;13.904;100.620;2023-08-01T10:08:11;100499.13;;;32.90;64.40
23223;BME280;11780;13.904;100.620;2023-08-01T10:10:43;100507.53;;;32.94;64.34
23223;BME280;11780;13.904;100.620;2023-08-01T10:13:14;100512.28;;;32.93;64.23
23223;BME280;11780;13.904;100.620;2023-08-01T10:15:45;100519.91;;;32.97;63.97
23223;BME280;11780;13.904;100.620;2023-08-01T10:18:16;100512.84;;;32.87;64.26
23223;BME280;11780;13.904;100.620;2023-08-01T10:20:48;100514.13;;;32.89;64.40
23223;BME280;11780;13.904;100.620;2023-08-01T10:23:19;100519.53;;;32.86;64.45
23223;BME280;11780;13.904;100.620;2023-08-01T10:25:50;100514.34;;;32.84;64.50
23223;BME280;11780;13.904;100.620;2023-08-01T10:28:35;100526.91;;;32.82;64.68
23223;BME280;11780;13.904;100.620;2023-08-01T10:31:13;100526.41;;;32.79;64.77
23223;BME280;11780;13.904;100.620;2023-08-01T10:33:48;100526.28;;;32.76;64.27
23223;BME280;11780;13.904;100.620;2023-08-01T10:36:21;100529.41;;;32.74;63.81
23223;BME280;11780;13.904;100.620;2023-08-01T10:38:58;100525.34;;;32.72;63.68
23223;BME280;11780;13.904;100.620;2023-08-01T10:41:35;100516.59;;;32.70;63.16
23223;BME280;11780;13.904;100.620;2023-08-01T10:44:13;100530.69;;;32.77;63.25
23223;BME280;11780;13.904;100.620;2023-08-01T10:46:55;100527.78;;;32.73;63.81
23223;BME280;11780;13.904;100.620;2023-08-01T10:49:40;100535.28;;;32.73;63.81
23223;BME280;11780;13.904;100.620;2023-08-01T10:52:30;100534.00;;;32.70;64.05
23223;BME280;11780;13.904;100.620;2023-08-01T10:55:03;100525.69;;;32.70;64.15
23223;BME280;11780;13.904;100.620;2023-08-01T10:57:39;100538.88;;;32.73;64.44
23223;BME280;11780;13.904;100.620;2023-08-01T11:00:10;100540.03;;;32.72;64.88
23223;BME280;11780;13.904;100.620;2023-08-01T11:02:42;100550.34;;;32.63;65.41
23223;BME280;11780;13.904;100.620;2023-08-01T11:05:12;100549.34;;;32.68;65.61
23223;BME280;11780;13.904;100.620;2023-08-01T11:07:56;100553.88;;;32.72;65.85
23223;BME280;11780;13.904;100.620;2023-08-01T11:10:29;100560.09;;;32.69;66.15
23223;BME280;11780;13.904;100.620;2023-08-01T11:13:01;100560.75;;;32.66;66.23
23223;BME280;11780;13.904;100.620;2023-08-01T11:15:31;100567.84;;;32.76;66.20
23223;BME280;11780;13.904;100.620;2023-08-01T11:18:02;100573.56;;;32.71;65.91
23223;BME280;11780;13.904;100.620;2023-08-01T11:20:38;100576.22;;;32.67;65.86
23223;BME280;11780;13.904;100.620;2023-08-01T11:23:10;100570.38;;;32.69;65.73
23223;BME280;11780;13.904;100.620;2023-08-01T11:25:42;100576.22;;;32.67;65.31
23223;BME280;11780;13.904;100.620;2023-08-01T11:28:17;100583.75;;;32.67;65.49
23223;BME280;11780;13.904;100.620;2023-08-01T11:30:47;100578.31;;;32.70;65.28
23223;BME280;11780;13.904;100.620;2023-08-01T11:33:21;100587.31;;;32.67;65.18
23223;BME280;11780;13.904;100.620;2023-08-01T11:35:53;100591.56;;;32.64;65.30
23223;BME280;11780;13.904;100.620;2023-08-01T11:38:29;100592.78;;;32.55;65.25
23223;BME280;11780;13.904;100.620;2023-08-01T11:41:01;100591.19;;;32.54;65.36
23223;BME280;11780;13.904;100.620;2023-08-01T11:43:41;100592.31;;;32.53;65.56
23223;BME280;11780;13.904;100.620;2023-08-01T11:46:12;100600.63;;;32.53;65.22
23223;BME280;11780;13.904;100.620;2023-08-01T11:48:46;100606.34;;;32.47;65.36
23223;BME280;11780;13.904;100.620;2023-08-01T11:51:17;100623.44;;;32.49;65.64
23223;BME280;11780;13.904;100.620;2023-08-01T11:54:01;100627.03;;;32.50;65.76
23223;BME280;11780;13.904;100.620;2023-08-01T11:56:32;100622.66;;;32.49;65.78
23223;BME280;11780;13.904;100.620;2023-08-01T11:59:10;100625.75;;;32.47;66.11
23223;BME280;11780;13.904;100.620;2023-08-01T12:01:46;100624.00;;;32.43;65.98
23223;BME280;11780;13.904;100.620;2023-08-01T12:04:27;100627.09;;;32.41;66.29
23223;BME280;11780;13.904;100.620;2023-08-01T12:06:58;100627.78;;;32.38;66.74
23223;BME280;11780;13.904;100.620;2023-08-01T12:09:31;100633.19;;;32.34;66.99
23223;BME280;11780;13.904;100.620;2023-08-01T12:12:04;100631.69;;;32.37;67.09
23223;BME280;11780;13.904;100.620;2023-08-01T12:14:39;100636.28;;;32.33;67.57
23223;BME280;11780;13.904;100.620;2023-08-01T12:17:10;100646.53;;;32.32;67.72
23223;BME280;11780;13.904;100.620;2023-08-01T12:19:41;100654.50;;;32.34;67.99
23223;BME280;11780;13.904;100.620;2023-08-01T12:22:12;100657.63;;;32.32;68.44
23223;BME280;11780;13.904;100.620;2023-08-01T12:24:42;100664.97;;;32.28;68.72
23223;BME280;11780;13.904;100.620;2023-08-01T12:27:13;100663.03;;;32.29;68.52
23223;BME280;11780;13.904;100.620;2023-08-01T12:29:43;100672.47;;;32.28;68.70
23223;BME280;11780;13.904;100.620;2023-08-01T12:32:13;100666.47;;;32.26;68.75
23223;BME280;11780;13.904;100.620;2023-08-01T12:34:44;100670.03;;;32.26;69.06
23223;BME280;11780;13.904;100.620;2023-08-01T12:37:14;100669.69;;;32.28;69.06
23223;BME280;11780;13.904;100.620;2023-08-01T12:39:44;100681.09;;;32.17;69.46
23223;BME280;11780;13.904;100.620;2023-08-01T12:42:15;100689.72;;;32.25;69.35
23223;BME280;11780;13.904;100.620;2023-08-01T12:44:45;100697.53;;;32.23;69.60
23223;BME280;11780;13.904;100.620;2023-08-01T12:47:16;100703.72;;;32.19;69.68
23223;BME280;11780;13.904;100.620;2023-08-01T12:49:46;100692.97;;;32.27;69.93
23223;BME280;11780;13.904;100.620;2023-08-01T12:52:24;100704.88;;;32.18;70.30
23223;BME280;11780;13.904;100.620;2023-08-01T12:54:55;100717.56;;;32.19;70.14